Time;durP1;ratioP1;P1;durP2;ratioP2;P2;SDS_P1;SDS_P2;PMS_P1;PMS_P2;Temp;Humidity;BMP_temperature;BMP_pressure;BME280_temperature;BME280_humidity;BME280_pressure;Samples;Min_cycle;Max_cycle;Signal;HPM_P1;HPM_P2
2021/05/30 00:01:17;;;;;;;3.60;3.40;;;;;;;18.93;46.32;94436.63;827694;71;32705;-77
2021/05/30 00:16:14;;;;;;;3.70;3.50;;;;;;;18.79;46.86;94420.52;827358;71;32702;-78
2021/05/30 00:31:08;;;;;;;3.30;3.10;;;;;;;18.76;46.79;94423.84;828357;71;29722;-78
2021/05/30 00:46:10;;;;;;;3.55;3.35;;;;;;;18.71;46.61;94416.11;828279;71;30263;-79
2021/05/30 01:01:09;;;;;;;3.02;2.90;;;;;;;18.37;46.36;94403.67;828259;71;30317;-77
2021/05/30 01:16:20;;;;;;;3.00;2.80;;;;;;;18.41;46.96;94419.72;827585;71;33290;-78
2021/05/30 01:31:08;;;;;;;3.87;3.17;;;;;;;18.36;46.57;94424.70;829806;71;29724;-78
2021/05/30 01:46:15;;;;;;;3.00;2.80;;;;;;;18.18;46.65;94414.14;834913;71;32698;-80
2021/05/30 02:01:14;;;;;;;3.55;3.00;;;;;;;18.13;47.14;94418.38;834177;71;32056;-77
2021/05/30 02:16:08;;;;;;;4.75;2.87;;;;;;;18.03;47.19;94423.60;828807;71;29876;-79
2021/05/30 02:31:15;;;;;;;3.35;3.15;;;;;;;17.95;47.32;94417.31;827512;71;32741;-78
2021/05/30 02:46:15;;;;;;;3.30;3.10;;;;;;;18.12;47.21;94424.78;827884;71;33141;-78
2021/05/30 03:16:14;;;;;;;3.25;3.00;;;;;;;18.11;47.81;94423.25;834026;71;32697;-78
2021/05/30 03:31:14;;;;;;;3.58;3.10;;;;;;;18.12;47.72;94426.88;827633;71;33341;-78
2021/05/30 03:46:18;;;;;;;3.15;2.95;;;;;;;18.24;47.36;94431.95;827553;71;32619;-79
2021/05/30 04:01:08;;;;;;;3.37;3.17;;;;;;;18.34;47.55;94426.15;828363;71;28768;-76
2021/05/30 04:16:09;;;;;;;3.47;3.10;;;;;;;18.55;46.81;94431.25;828325;71;29773;-79
2021/05/30 04:31:08;;;;;;;3.70;3.40;;;;;;;18.74;46.76;94427.40;828537;71;28766;-79
2021/05/30 04:46:09;;;;;;;3.22;3.02;;;;;;;18.96;46.26;94425.32;834319;71;29358;-77
2021/05/30 05:01:19;;;;;;;3.37;3.17;;;;;;;19.51;45.05;94413.48;834153;71;31768;-79
2021/05/30 05:16:15;;;;;;;3.30;3.10;;;;;;;19.79;44.20;94418.70;835680;71;31843;-77
2021/05/30 05:31:14;;;;;;;3.45;3.25;;;;;;;19.71;43.28;94422.33;828330;71;32186;-78
2021/05/30 05:46:14;;;;;;;3.90;3.67;;;;;;;21.00;46.17;94431.48;828746;71;31827;-75
2021/05/30 06:01:10;;;;;;;4.00;3.70;;;;;;;21.74;42.99;94444.50;833961;71;30019;-74
2021/05/30 06:16:09;;;;;;;3.67;3.45;;;;;;;21.33;41.06;94447.45;821439;71;28792;-74
2021/05/30 06:31:16;;;;;;;3.72;3.50;;;;;;;20.77;40.83;94450.14;820191;71;31611;-76
2021/05/30 06:46:17;;;;;;;11.38;10.28;;;;;;;20.33;43.05;94451.75;814412;71;31998;-78
2021/05/30 07:01:09;;;;;;;5.40;4.90;;;;;;;20.15;42.12;94471.38;821307;71;28754;-74
2021/05/30 07:16:17;;;;;;;7.65;6.60;;;;;;;19.97;43.14;94461.13;833871;71;31861;-76
2021/05/30 07:31:13;;;;;;;6.85;6.15;;;;;;;20.51;42.79;94477.44;826277;71;31375;-79
2021/05/30 07:46:13;;;;;;;4.35;4.03;;;;;;;21.70;39.64;94454.36;821599;71;33483;-76
2021/05/30 08:01:12;;;;;;;7.03;6.20;;;;;;;22.70;39.56;94452.20;821074;71;30324;-76
2021/05/30 08:16:09;;;;;;;3.43;3.23;;;;;;;23.64;36.87;94440.45;828361;71;30270;-78
2021/05/30 08:31:09;;;;;;;4.77;4.43;;;;;;;24.79;34.86;94435.06;812406;71;30402;-78
2021/05/30 08:46:16;;;;;;;4.70;4.40;;;;;;;25.12;33.98;94441.28;828224;71;33062;-75
2021/05/30 09:16:19;;;;;;;4.63;3.93;;;;;;;25.05;33.81;94441.25;829012;71;30279;-77
2021/05/30 09:31:15;;;;;;;3.63;3.43;;;;;;;25.34;33.17;94431.90;823955;71;33218;-76
2021/05/30 09:46:11;;;;;;;3.70;3.50;;;;;;;26.00;32.79;94407.85;835034;71;29705;-75
2021/05/30 10:01:18;;;;;;;3.70;3.50;;;;;;;26.96;31.76;94385.09;827220;71;33230;-75
2021/05/30 10:16:18;;;;;;;3.47;3.27;;;;;;;27.78;30.55;-9979.88;827253;71;32659;-76
2021/05/30 10:31:26;;;;;;;3.70;3.47;;;;;;;28.38;29.77;94345.77;827185;71;32704;-77
2021/05/30 10:46:15;;;;;;;22.80;20.50;;;;;;;28.97;29.16;94334.34;827447;71;32761;-75
2021/05/30 11:01:38;;;;;;;35.43;31.87;;;;;;;29.50;29.86;94335.42;834198;71;31038;-80
2021/05/30 11:16:09;;;;;;;8.20;7.50;;;;;;;28.91;30.42;94348.14;834239;71;30317;-75
2021/05/30 11:31:09;;;;;;;5.13;4.63;;;;;;;28.48;30.95;94346.03;828482;71;29680;-77
2021/05/30 11:46:17;;;;;;;4.10;3.80;;;;;;;27.52;32.35;94343.28;827512;71;33606;-77
2021/05/30 12:01:07;;;;;;;5.37;4.97;;;;;;;;;;828276;71;29747;-74
2021/05/30 12:16:16;;;;;;;4.37;4.07;;;;;;;26.64;34.55;94347.02;828490;71;32750;-76
2021/05/30 12:31:19;;;;;;;4.47;4.07;;;;;;;26.18;35.06;94342.66;828417;71;32736;-75
2021/05/30 12:46:11;;;;;;;4.73;4.30;;;;;;;25.73;36.92;94333.77;833588;71;29705;-76
2021/05/30 13:01:22;;;;;;;4.57;4.17;;;;;;;25.42;36.48;94332.67;833760;71;31985;-76
2021/05/30 13:16:14;;;;;;;5.47;5.17;;;;;;;24.92;37.17;94335.38;825649;71;32809;-75
2021/05/30 13:31:18;;;;;;;7.13;6.53;;;;;;;24.50;37.61;94349.72;827636;71;32695;-75
2021/05/30 13:46:15;;;;;;;8.10;7.50;;;;;;;22.80;41.30;94359.23;833891;71;33998;-75
2021/05/30 14:01:12;;;;;;;8.80;8.10;;;;;;;21.54;46.73;94389.08;828034;71;30271;-75
2021/05/30 14:16:10;;;;;;;9.20;8.45;;;;;;;20.29;46.94;94395.72;828012;71;30406;-75
2021/05/30 14:31:10;;;;;;;8.80;8.00;;;;;;;19.41;50.87;94409.47;823788;71;30339;-75
2021/05/30 14:46:14;;;;;;;9.13;8.35;;;;;;;18.71;55.85;94428.06;834620;71;32715;-77
2021/05/30 15:16:19;;;;;;;9.58;8.68;;;;;;;17.28;62.05;94435.38;828376;71;32769;-76
2021/05/30 15:31:09;;;;;;;11.53;10.32;;;;;;;16.72;65.21;94441.12;828084;71;29708;-77
2021/05/30 15:46:09;;;;;;;12.40;10.80;;;;;;;16.41;67.74;94428.34;828622;71;30616;-78
2021/05/30 16:01:11;;;;;;;11.38;10.28;;;;;;;16.13;68.18;94436.05;833711;71;30288;-75
2021/05/30 16:16:08;;;;;;;8.45;7.72;;;;;;;15.86;67.40;94430.19;827964;71;29699;-76
2021/05/30 16:31:10;;;;;;;9.00;8.10;;;;;;;15.54;67.11;94431.05;828374;71;29694;-80
2021/05/30 16:46:15;;;;;;;9.80;8.90;;;;;;;15.30;67.26;94421.63;800068;74;32874;-79
2021/05/30 17:01:09;;;;;;;8.80;7.92;;;;;;;15.12;67.81;94420.92;828678;71;29712;-78
2021/05/30 17:16:15;;;;;;;8.15;7.35;;;;;;;14.90;67.38;94414.81;827324;71;31766;-75
2021/05/30 18:16:56;;;;;;;10.38;9.38;;;;;;;14.47;68.73;94422.25;828443;71;30424;-84
2021/05/30 18:46:10;;;;;;;11.53;8.53;;;;;;;14.33;71.52;94444.09;829061;71;28756;-84
2021/05/30 19:01:24;;;;;;;9.13;7.80;;;;;;;14.21;71.49;94442.08;823965;70;31726;-86
2021/05/30 19:31:44;;;;;;;6.72;6.12;;;;;;;14.04;70.19;94444.18;780946;75;32057;-87
2021/05/30 19:46:26;;;;;;;7.65;6.90;;;;;;;13.96;69.52;94454.95;829284;71;32092;-85
2021/05/30 20:16:30;;;;;;;8.08;7.35;;;;;;;13.86;70.28;94453.17;832568;71;31771;-86
2021/05/30 23:31:51;;;;;;;10.10;9.10;;;;;;;13.43;77.69;94402.70;827861;71;32357;-88
